Portada
METAR-TAF:

METAR-TAF

Aeropuertos :

Aeropuerto de Fukuoka

Fukuoka, Japón

latitud: 33-35N, longitud: 130-27E, altitud: 9 m

Observación

El informe se hizo hace 20 minutos, a las 00:00 UTC
Viento 8 kt del noroeste, variando entre oeste y norte
Temperatura 22°C
Humedad 73%
Presión 1011 hPa
Visibilidad 10 km o más
Escasas nubes a una altura de 1500 ft

METAR: RJFF 070000Z 31008KT 270V360 9999 FEW015 22/17 Q1011 NOSIG RMK 1CU015 A2987

Hora: 09:20 (00:20 UTC)

Pronóstico

El informe se hizo hace 1 hora y 15 minutos, a las 23:05 UTC
Pronóstico válido del 07 a las 00 UTC al 08 a las 06 UTC
Viento 10 kt del norte-noroeste
Visibilidad 10 km o más
Escasas nubes a una altura de 3500 ft
Evolucionando progresivamente
del 07 a las 12 UTC al 07 a las 15 UTC
Viento 4 kt del sur-sureste
Evolucionando progresivamente
del 08 a las 00 UTC al 08 a las 03 UTC
Viento 10 kt del noroeste

TAF: RJFF 062305Z 0700/0806 33010KT 9999 FEW035 BECMG 0712/0715 15004KT BECMG 0800/0803 31010KT

Observaciones y pronósticos meteorológicos de más de 4000 aeropuertos (mensajes METAR y TAF).

Los puntos amarillos y rojos representan las estaciones disponibles.

Ponga el ratón en el punto deseado para ver el nombre de la estación.

Haga clic para ver las observaciones y los pronósticos meteorológicos.

Para cambiar el mapa : haga clic en los botones verdes con una cruz de color negro para hacer un zoom, en el botón verde con un guión para alejar o en las flechas verdes para mapas adyacentes.


METAR-TAF: